메인 페이지
METAR-TAF:

METAR-TAF

공항 :

잭슨 국제공항

포트모르즈비, 파푸아뉴기니

위도: 09-26S, 경도: 147-13E, 고도: 38m

현재 날씨관측

예보는 1 시간 4분 전, 04:00시(UTC)에 발표되었습니다.
남동20kt
온도 32°C
습도 56%
기압 1008 hPa
시정 10km 이상
고도 3500ft 상공 구름 보통
연무

METAR: AYPY 150400Z 13020KT 9999 HZ SCT035 32/22 Q1008 RMK: CB TO NW AND E

시각: 15:04 (05:04 UTC)

예보

예보는 8 시간 3분 전, 21:01시(UTC)에 발표되었습니다.
예보 대상 시간: 15일 00시부터 15일 24시까지 (UTC)
남동7kt
시정 10km 이상
고도 1800ft 상공 구름 보통
15일 0500시부터 (UTC)
남남동10kt
시정 10km 이상
고도 2000ft 상공 구름 보통
고도 14000ft 상공 구름 많음

TAF: AYPY 142101Z 1500/1524 14007KT 9999 SCT018 FM150500 16010KT 9999 SCT020 BKN140

4,000개 이상의 공항 관측 자료 및 예보 (METAR 및 TAF 보고).

지도상에서 검색 가능한 기상관측소가 노란 점과 빨간 점으로 표시되어 있습니다.

기상관측소 명을 보려면 표시 위로 마우스를 이동하세요.

날씨 관측과 예보를 보려면 클릭하세요.

지도 변경 : 확대하려면 엑스 표시가 있는 녹색 버튼, 축소하려면 빼기 표시가 있는 녹색 버튼, 다음 페이지의 지도를 보려면 녹색 화살표를 클릭하세요.


METAR-TAF: